Time;durP1;ratioP1;P1;durP2;ratioP2;P2;SDS_P1;SDS_P2;PMS_P1;PMS_P2;Temp;Humidity;BMP_temperature;BMP_pressure;BME280_temperature;BME280_humidity;BME280_pressure;Samples;Min_cycle;Max_cycle;Signal;HPM_P1;HPM_P2
2022/03/06 00:00:54;;;;;;;27.08;13.30;;;;;;;18.19;20.11;98672.75;5071825;28;20093;-76
2022/03/06 00:03:20;;;;;;;27.38;14.48;;;;;;;18.65;19.41;98676.03;5079570;28;20035;-76
2022/03/06 00:05:46;;;;;;;29.00;13.98;;;;;;;19.01;19.06;98683.50;5079519;28;21310;-76
2022/03/06 00:08:12;;;;;;;26.33;13.35;;;;;;;18.90;19.08;98677.88;5082592;28;20044;-76
2022/03/06 00:10:38;;;;;;;33.45;15.18;;;;;;;18.90;19.13;98677.06;5081572;28;20054;-77
2022/03/06 00:13:05;;;;;;;25.80;13.50;;;;;;;18.52;19.54;98678.28;5077260;28;20035;-77
2022/03/06 00:15:31;;;;;;;24.80;11.75;;;;;;;19.09;18.87;98679.59;5082321;28;20054;-77
2022/03/06 00:17:57;;;;;;;24.65;12.30;;;;;;;19.51;18.40;98676.34;5080687;28;20032;-77
2022/03/06 00:20:23;;;;;;;24.50;12.73;;;;;;;19.46;18.25;98671.94;5083343;28;21860;-77
2022/03/06 00:22:49;;;;;;;27.85;13.30;;;;;;;19.17;18.63;98670.09;5086690;28;20098;-77
2022/03/06 00:25:16;;;;;;;25.88;13.63;;;;;;;18.06;19.65;98671.41;5042515;28;1137139;-77
2022/03/06 00:27:42;;;;;;;28.92;14.05;;;;;;;18.70;19.19;98675.66;5083440;28;20055;-77
2022/03/06 00:30:09;;;;;;;27.35;13.63;;;;;;;18.76;19.01;98676.94;5081682;28;20118;-77
2022/03/06 00:32:35;;;;;;;30.75;13.63;;;;;;;17.97;19.95;98673.69;5078573;28;20028;-77
2022/03/06 00:35:01;;;;;;;28.52;13.50;;;;;;;19.03;18.88;98662.44;5085624;28;20036;-77
2022/03/06 00:37:27;;;;;;;22.00;11.57;;;;;;;19.81;18.06;98666.53;5083331;28;20489;-77
2022/03/06 00:39:53;;;;;;;25.50;13.05;;;;;;;19.40;18.38;98664.31;5078569;28;20028;-77
2022/03/06 00:42:19;;;;;;;25.00;13.20;;;;;;;19.89;17.97;98667.38;5080358;28;20042;-77
2022/03/06 00:44:45;;;;;;;24.50;12.23;;;;;;;20.38;17.40;98663.97;5078965;28;20032;-77
2022/03/06 00:47:11;;;;;;;26.95;13.88;;;;;;;19.10;18.60;98665.28;5080096;28;20036;-77
2022/03/06 00:49:38;;;;;;;24.65;12.73;;;;;;;18.71;19.03;98664.19;5082043;28;20032;-77
2022/03/06 00:52:04;;;;;;;21.83;11.30;;;;;;;18.56;19.36;98665.22;5083571;28;20111;-77
2022/03/06 00:54:30;;;;;;;22.88;11.60;;;;;;;19.37;18.38;98673.47;5086882;28;20051;-77
2022/03/06 00:56:56;;;;;;;27.73;13.63;;;;;;;17.91;20.06;98670.44;5090617;28;20149;-77
2022/03/06 00:59:23;;;;;;;30.00;14.15;;;;;;;18.64;19.41;98664.13;5084301;28;20035;-77
2022/03/06 01:01:49;;;;;;;21.25;11.32;;;;;;;19.16;18.86;98666.50;5086610;28;20370;-77
2022/03/06 01:04:15;;;;;;;23.23;11.65;;;;;;;19.75;17.98;98656.97;5084971;28;20395;-77
2022/03/06 01:06:41;;;;;;;22.27;11.65;;;;;;;18.79;18.80;98656.66;5083319;28;20020;-77
2022/03/06 01:09:07;;;;;;;25.63;13.02;;;;;;;18.78;19.02;98667.03;5084142;28;20028;-77
2022/03/06 01:11:37;;;;;;;25.48;12.45;;;;;;;18.98;19.08;98654.47;5084957;28;20036;-77
2022/03/06 01:14:03;;;;;;;25.98;13.30;;;;;;;18.35;19.44;98654.66;5088212;28;20124;-77
2022/03/06 01:16:30;;;;;;;26.33;13.07;;;;;;;18.71;19.28;98657.81;5087898;28;20044;-77
2022/03/06 01:18:56;;;;;;;28.23;12.60;;;;;;;18.83;19.18;98654.75;5082230;28;20418;-77
2022/03/06 01:21:22;;;;;;;26.77;11.23;;;;;;;19.20;18.59;98652.63;5084036;28;20047;-77
2022/03/06 01:23:48;;;;;;;24.75;12.48;;;;;;;18.85;19.06;98663.50;5084513;28;20043;-77
2022/03/06 01:26:16;;;;;;;23.38;12.35;;;;;;;18.83;19.10;98657.53;5082019;28;20770;-77
2022/03/06 01:28:42;;;;;;;25.60;12.02;;;;;;;19.55;18.31;98655.66;5082560;28;20032;-77
2022/03/06 01:31:08;;;;;;;25.70;12.00;;;;;;;18.72;19.11;98654.63;5083152;28;20359;-77
2022/03/06 01:33:34;;;;;;;27.80;13.48;;;;;;;17.93;19.93;98659.75;5086670;28;20169;-77
2022/03/06 01:36:00;;;;;;;23.00;11.57;;;;;;;18.85;19.03;98655.16;5084413;28;20044;-77
2022/03/06 01:38:26;;;;;;;24.88;12.45;;;;;;;18.79;18.88;98653.88;5083345;28;20039;-77
2022/03/06 01:40:52;;;;;;;22.00;11.95;;;;;;;19.13;18.69;98660.94;5093658;28;20474;-76
2022/03/06 01:43:18;;;;;;;28.63;12.65;;;;;;;18.38;19.47;98659.47;5083085;28;20074;-77
2022/03/06 01:45:45;;;;;;;22.95;11.50;;;;;;;19.18;18.60;98657.78;5088166;28;20028;-77
2022/03/06 01:48:11;;;;;;;25.23;11.82;;;;;;;18.21;19.59;98660.06;5087060;28;20482;-77
2022/03/06 01:50:38;;;;;;;22.38;11.88;;;;;;;18.32;19.43;98663.75;5064009;28;20044;-77
2022/03/06 01:53:07;;;;;;;23.13;10.80;;;;;;;17.97;19.87;98660.56;5087183;28;20025;-77
2022/03/06 01:55:34;;;;;;;24.95;12.52;;;;;;;17.84;19.95;98664.78;5087047;28;20096;-77
2022/03/06 01:58:04;;;;;;;25.98;14.27;;;;;;;17.31;20.57;98663.25;5085216;28;20036;-77
2022/03/06 02:00:33;;;;;;;20.38;10.68;;;;;;;18.47;19.29;98662.75;5086881;28;20036;-77
2022/03/06 02:02:59;;;;;;;24.38;11.43;;;;;;;18.97;18.74;98660.41;5085218;28;20028;-77
2022/03/06 02:05:26;;;;;;;22.15;11.15;;;;;;;20.33;17.63;98662.38;5086332;28;20036;-77
2022/03/06 02:07:52;;;;;;;26.20;12.32;;;;;;;19.77;17.76;98665.72;5088702;28;20503;-77
2022/03/06 02:10:18;;;;;;;22.77;11.43;;;;;;;20.31;17.35;98663.94;5083192;28;20039;-77
2022/03/06 02:12:46;;;;;;;27.95;11.05;;;;;;;19.94;17.60;98664.19;5084251;28;20024;-77
2022/03/06 02:15:14;;;;;;;21.20;10.52;;;;;;;19.74;17.78;98666.50;5081540;28;20489;-77
2022/03/06 02:17:41;;;;;;;23.45;11.20;;;;;;;19.33;18.17;98663.06;5086149;28;20092;-77
2022/03/06 02:20:15;;;;;;;22.23;10.20;;;;;;;18.85;18.74;98663.50;5081119;28;20036;-77
2022/03/06 02:22:44;;;;;;;23.33;12.15;;;;;;;18.09;19.48;98660.31;5083940;28;20040;-77
2022/03/06 02:25:35;;;;;;;24.92;13.10;;;;;;;17.59;20.06;98664.47;5084385;28;20036;-78
2022/03/06 02:28:06;;;;;;;22.15;10.52;;;;;;;17.90;20.04;98655.75;5083306;28;20051;-77
2022/03/06 02:30:34;;;;;;;;;;;;;;;18.31;19.44;98647.47;5085939;28;20115;-78
2022/03/06 02:33:02;;;;;;;23.85;11.45;;;;;;;18.49;19.19;98649.28;5086906;28;20288;-78
2022/03/06 02:35:28;;;;;;;23.33;11.98;;;;;;;17.93;20.02;98648.63;5083036;28;20498;-77
2022/03/06 02:37:55;;;;;;;25.63;11.73;;;;;;;18.00;19.60;98645.94;5082676;28;22302;-77
2022/03/06 02:40:22;;;;;;;22.92;11.32;;;;;;;18.53;19.16;98644.53;5084768;28;20024;-78
2022/03/06 02:42:51;;;;;;;20.30;8.95;;;;;;;18.89;18.82;98642.06;5082535;28;20040;-78
2022/03/06 02:45:26;;;;;;;22.98;12.20;;;;;;;19.65;17.91;98643.00;5082762;28;20060;-77
2022/03/06 02:47:56;;;;;;;21.25;10.95;;;;;;;19.47;18.20;98642.06;5082334;28;20035;-77
2022/03/06 02:50:29;;;;;;;21.27;10.25;;;;;;;19.61;17.90;98640.16;5081684;28;20036;-77
2022/03/06 02:52:57;;;;;;;19.33;9.38;;;;;;;20.01;17.53;98636.34;5085907;28;20517;-77
2022/03/06 02:55:23;;;;;;;27.42;11.80;;;;;;;18.86;18.59;98637.25;5083736;28;20115;-77
2022/03/06 02:57:50;;;;;;;16.65;8.88;;;;;;;19.31;18.26;98639.56;5085143;28;20043;-77
2022/03/06 03:00:19;;;;;;;21.13;10.60;;;;;;;18.86;18.48;98637.25;5085601;28;20039;-77
2022/03/06 03:02:46;;;;;;;19.05;9.73;;;;;;;19.02;18.23;98637.81;5082480;28;20027;-77
2022/03/06 03:05:13;;;;;;;19.67;10.52;;;;;;;18.82;18.69;98636.44;5084627;28;20036;-77
2022/03/06 03:07:41;;;;;;;20.13;10.48;;;;;;;18.38;18.75;98642.78;5082286;28;20127;-77
2022/03/06 03:10:09;;;;;;;27.85;12.52;;;;;;;17.59;19.86;98645.03;5081321;28;20025;-77
2022/03/06 03:12:36;;;;;;;22.65;11.20;;;;;;;16.87;20.44;98646.34;5068879;28;20523;-77
2022/03/06 03:15:04;;;;;;;22.55;11.45;;;;;;;15.90;21.92;98645.75;5077418;28;20037;-77
2022/03/06 03:17:31;;;;;;;20.75;11.50;;;;;;;16.87;20.73;98640.78;5083171;28;20086;-77
2022/03/06 03:19:57;;;;;;;21.25;11.38;;;;;;;16.94;20.66;98636.13;5081376;28;20382;-77
2022/03/06 03:22:23;;;;;;;21.23;9.68;;;;;;;17.95;19.51;98644.28;5084887;28;20412;-77
2022/03/06 03:24:49;;;;;;;23.15;11.32;;;;;;;18.05;19.32;98642.00;5083237;28;20405;-78
2022/03/06 03:27:15;;;;;;;21.63;10.70;;;;;;;16.71;20.35;98640.91;5081507;28;20367;-77
2022/03/06 03:29:41;;;;;;;21.80;11.05;;;;;;;16.57;21.00;98635.13;5084318;28;20032;-77
2022/03/06 03:32:08;;;;;;;29.85;13.13;;;;;;;15.82;21.17;98654.28;5083041;28;20031;-77
2022/03/06 03:34:35;;;;;;;21.17;10.38;;;;;;;16.18;21.08;98647.44;5064181;28;20769;-77
2022/03/06 03:37:01;;;;;;;22.08;11.82;;;;;;;16.74;20.55;98650.47;5082575;28;20032;-77
2022/03/06 03:39:28;;;;;;;26.42;12.95;;;;;;;14.68;22.60;98654.84;5085171;28;20032;-77
2022/03/06 03:41:54;;;;;;;23.50;11.02;;;;;;;15.60;21.73;98663.31;5084364;28;20036;-77
2022/03/06 03:44:20;;;;;;;19.45;10.13;;;;;;;15.89;21.45;98663.53;5082648;28;20052;-77
2022/03/06 03:46:46;;;;;;;23.23;10.98;;;;;;;16.21;20.89;98666.13;5078440;28;20159;-77
2022/03/06 03:49:14;;;;;;;22.98;9.93;;;;;;;15.94;20.88;98658.88;5086590;28;20389;-77
2022/03/06 03:51:41;;;;;;;16.85;8.95;;;;;;;15.60;20.75;98666.88;5084314;28;20872;-77
2022/03/06 03:54:07;;;;;;;18.23;9.27;;;;;;;16.58;19.63;98656.16;5079541;28;20032;-78
2022/03/06 03:56:34;;;;;;;19.08;8.73;;;;;;;17.09;18.96;98653.78;5083344;28;20190;-77
2022/03/06 03:59:00;;;;;;;19.33;9.18;;;;;;;16.50;19.68;98657.13;5083837;28;20035;-77
2022/03/06 04:01:26;;;;;;;15.20;8.07;;;;;;;16.81;19.63;98665.25;5082794;28;20036;-77
2022/03/06 04:03:52;;;;;;;20.65;10.00;;;;;;;14.72;21.61;98658.47;5087307;28;20043;-77
2022/03/06 04:06:18;;;;;;;21.42;9.80;;;;;;;14.90;22.00;98671.56;5079014;28;20028;-77
2022/03/06 04:08:44;;;;;;;23.90;10.32;;;;;;;14.65;22.36;98661.06;5077684;28;20033;-77
2022/03/06 04:11:11;;;;;;;20.17;10.13;;;;;;;14.15;22.87;98667.22;5087074;28;20055;-77
2022/03/06 04:13:37;;;;;;;21.50;10.07;;;;;;;15.26;22.04;98670.44;5085239;28;20163;-77
2022/03/06 04:16:03;;;;;;;19.55;9.07;;;;;;;17.14;19.79;98657.06;5087155;28;20032;-77
2022/03/06 04:18:29;;;;;;;17.95;9.13;;;;;;;17.40;19.11;98652.66;5084177;28;20047;-78
2022/03/06 04:20:56;;;;;;;18.10;8.00;;;;;;;17.94;19.06;98664.13;5077830;28;20033;-78
2022/03/06 04:23:22;;;;;;;19.95;8.98;;;;;;;18.11;18.42;98655.19;5081792;28;20039;-78
2022/03/06 04:25:48;;;;;;;14.40;7.93;;;;;;;17.57;18.45;98666.03;5082151;28;20086;-77
2022/03/06 04:28:14;;;;;;;17.25;8.13;;;;;;;19.26;16.83;98662.22;5084847;28;20119;-78
2022/03/06 04:30:40;;;;;;;16.50;7.82;;;;;;;18.53;17.41;98652.06;5079666;28;20039;-78
2022/03/06 04:33:06;;;;;;;18.48;7.75;;;;;;;18.06;18.00;98665.84;5089392;28;20127;-78
2022/03/06 04:35:32;;;;;;;15.85;8.18;;;;;;;17.31;18.63;98661.28;5085218;28;20032;-77
2022/03/06 04:37:58;;;;;;;20.17;9.80;;;;;;;17.94;18.37;98669.69;5083997;28;20052;-78
2022/03/06 04:40:25;;;;;;;16.40;7.60;;;;;;;19.16;16.99;98657.38;5083075;28;20434;-77
2022/03/06 04:42:51;;;;;;;14.80;7.05;;;;;;;19.29;17.06;98665.03;5070357;28;20119;-78
2022/03/06 04:45:17;;;;;;;15.02;7.55;;;;;;;19.11;17.36;98660.53;5080069;28;20029;-78
2022/03/06 04:47:43;;;;;;;17.58;8.07;;;;;;;20.07;16.39;98654.28;5077526;28;20413;-78
2022/03/06 04:50:09;;;;;;;19.77;7.75;;;;;;;20.71;15.81;98648.88;5086118;28;20036;-78
2022/03/06 04:52:35;;;;;;;19.58;9.23;;;;;;;19.71;16.57;98663.69;5080640;28;20067;-78
2022/03/06 04:55:02;;;;;;;19.70;9.32;;;;;;;19.43;16.99;98657.97;5083532;28;20036;-78
2022/03/06 04:57:28;;;;;;;18.02;8.20;;;;;;;18.17;18.13;98666.75;5082362;28;20051;-78
2022/03/06 04:59:54;;;;;;;21.13;9.48;;;;;;;18.07;18.30;98665.47;5081271;28;20051;-78
2022/03/06 05:02:20;;;;;;;16.70;8.07;;;;;;;19.23;17.25;98661.00;5082139;28;20024;-78
2022/03/06 05:04:46;;;;;;;12.90;7.15;;;;;;;19.50;16.96;98658.81;5084663;28;20060;-77
2022/03/06 05:07:12;;;;;;;16.70;8.23;;;;;;;18.86;17.48;98665.88;5081860;28;20032;-78
2022/03/06 05:09:38;;;;;;;19.00;9.77;;;;;;;18.48;17.88;98661.56;5083038;28;20497;-77
2022/03/06 05:12:05;;;;;;;19.65;8.55;;;;;;;19.26;17.28;98671.38;5085362;28;20282;-77
2022/03/06 05:14:31;;;;;;;16.50;8.20;;;;;;;19.11;17.58;98675.22;5078490;28;20094;-78
2022/03/06 05:16:57;;;;;;;15.13;7.22;;;;;;;19.14;17.39;98665.31;5084404;28;20498;-77
2022/03/06 05:19:23;;;;;;;14.65;8.30;;;;;;;19.81;16.65;98663.75;5085144;28;20028;-77
2022/03/06 05:21:49;;;;;;;16.70;8.65;;;;;;;19.84;16.75;98670.53;5078729;28;20085;-77
2022/03/06 05:24:15;;;;;;;18.27;8.95;;;;;;;18.16;18.32;98673.50;5084133;28;20467;-78
2022/03/06 05:26:41;;;;;;;15.70;7.95;;;;;;;17.71;18.69;98669.78;5084375;28;20051;-77
2022/03/06 05:29:08;;;;;;;15.27;6.82;;;;;;;17.60;18.68;98670.81;5083938;28;20484;-77
2022/03/06 05:31:34;;;;;;;16.20;7.78;;;;;;;14.79;20.68;98680.75;5082067;28;20535;-77
2022/03/06 05:34:00;;;;;;;17.83;8.05;;;;;;;15.40;20.79;98675.50;5081463;28;20032;-77
2022/03/06 05:36:26;;;;;;;15.13;8.30;;;;;;;16.23;20.35;98677.63;5083958;28;20416;-78
2022/03/06 05:38:53;;;;;;;15.32;7.28;;;;;;;17.38;19.00;98675.25;5084558;28;20037;-77
2022/03/06 05:41:19;;;;;;;14.35;7.70;;;;;;;15.79;20.48;98674.38;5084374;28;20028;-78
2022/03/06 05:43:45;;;;;;;16.88;8.43;;;;;;;16.30;20.04;98672.22;5086449;28;20016;-78
2022/03/06 05:46:11;;;;;;;16.60;9.27;;;;;;;15.87;20.44;98673.34;5082903;28;20039;-78
2022/03/06 05:48:37;;;;;;;18.92;10.00;;;;;;;16.21;20.19;98671.66;5086961;28;20024;-78
2022/03/06 05:51:03;;;;;;;20.70;9.38;;;;;;;15.65;20.73;98658.28;5067767;28;20056;-78
2022/03/06 05:53:29;;;;;;;17.98;9.50;;;;;;;15.08;21.44;98666.44;5086272;28;20577;-78
2022/03/06 05:55:58;;;;;;;18.38;10.20;;;;;;;15.01;21.81;98672.63;5085570;28;20119;-77
2022/03/06 05:58:24;;;;;;;18.98;9.40;;;;;;;15.22;21.50;98664.00;5084802;28;20539;-77
2022/03/06 06:00:50;;;;;;;16.67;9.15;;;;;;;15.58;20.94;98669.22;5085466;28;20024;-77
2022/03/06 06:03:16;;;;;;;19.27;9.32;;;;;;;15.80;20.70;98668.47;5086609;28;20033;-76
2022/03/06 06:05:43;;;;;;;21.17;9.95;;;;;;;14.69;21.95;98671.03;5086769;28;20048;-76
2022/03/06 06:08:09;;;;;;;19.67;10.13;;;;;;;15.88;20.57;98669.44;5078905;28;20028;-77
2022/03/06 06:10:36;;;;;;;17.23;9.75;;;;;;;14.26;22.02;98671.09;5085615;28;20025;-77
2022/03/06 06:13:02;;;;;;;21.35;9.43;;;;;;;14.87;21.62;98674.22;5083671;28;20035;-77
2022/03/06 06:15:28;;;;;;;13.32;8.27;;;;;;;17.33;18.82;98670.03;5088511;28;20036;-77
2022/03/06 06:17:55;;;;;;;19.17;9.05;;;;;;;16.34;19.24;98673.09;5085448;28;20043;-77
2022/03/06 06:20:21;;;;;;;16.83;9.23;;;;;;;16.08;19.44;98678.53;5084640;28;21905;-77
2022/03/06 06:22:48;;;;;;;15.10;8.88;;;;;;;15.65;20.38;98679.63;5087647;28;20040;-77
2022/03/06 06:25:14;;;;;;;15.23;9.20;;;;;;;15.06;21.11;98680.66;5087397;28;20371;-77
2022/03/06 06:27:40;;;;;;;14.32;8.48;;;;;;;15.17;21.17;98678.13;5086211;28;20037;-77
2022/03/06 06:30:07;;;;;;;16.33;8.52;;;;;;;16.24;19.48;98682.03;5087683;28;20153;-77
2022/03/06 06:32:33;;;;;;;13.52;7.20;;;;;;;17.57;18.46;98679.91;5084457;28;20032;-77
2022/03/06 06:34:59;;;;;;;14.63;8.20;;;;;;;16.81;18.90;98672.75;5086758;28;20107;-77
2022/03/06 06:37:25;;;;;;;14.35;8.40;;;;;;;15.44;20.29;98677.19;5086048;28;20085;-77
2022/03/06 06:39:51;;;;;;;15.18;8.50;;;;;;;14.79;20.82;98684.34;5082979;28;20024;-78
2022/03/06 06:42:17;;;;;;;16.98;8.65;;;;;;;14.64;21.36;98687.09;5088949;28;20024;-77
2022/03/06 06:44:44;;;;;;;18.30;8.45;;;;;;;13.80;22.31;98692.69;5083551;28;20032;-77
2022/03/06 06:47:10;;;;;;;17.80;7.47;;;;;;;13.97;21.99;98685.25;5087936;28;20363;-77
2022/03/06 06:49:36;;;;;;;15.40;9.00;;;;;;;12.99;23.38;98695.69;5088300;28;20118;-77
2022/03/06 06:52:02;;;;;;;15.88;8.40;;;;;;;13.39;23.17;98693.03;5065520;28;20112;-78
2022/03/06 06:54:28;;;;;;;16.27;8.15;;;;;;;13.95;22.05;98691.13;5081962;28;20036;-77
2022/03/06 06:56:54;;;;;;;15.93;7.95;;;;;;;14.57;21.64;98693.22;5089420;28;20405;-77
2022/03/06 06:59:21;;;;;;;12.00;6.88;;;;;;;15.08;20.34;98696.88;5087113;28;20031;-77
2022/03/06 07:01:47;;;;;;;13.93;7.35;;;;;;;16.11;19.88;98694.41;5091148;28;20027;-77
2022/03/06 07:04:13;;;;;;;13.77;6.53;;;;;;;17.24;18.26;98689.72;5081867;28;20114;-77
2022/03/06 07:06:39;;;;;;;12.95;6.65;;;;;;;16.13;18.84;98701.19;5078549;28;20464;-77
2022/03/06 07:09:05;;;;;;;10.70;6.13;;;;;;;15.18;19.70;98691.59;5086867;28;20413;-77
2022/03/06 07:11:31;;;;;;;8.73;5.60;;;;;;;15.10;20.11;98698.13;5082874;28;20032;-77
2022/03/06 07:13:57;;;;;;;13.95;5.95;;;;;;;16.56;18.87;98700.06;5082759;28;20063;-77
2022/03/06 07:16:23;;;;;;;12.55;7.10;;;;;;;14.85;20.34;98701.44;5082955;28;20051;-77
2022/03/06 07:18:49;;;;;;;12.13;6.18;;;;;;;15.38;20.57;98708.25;5081211;28;20110;-77
2022/03/06 07:21:15;;;;;;;10.90;6.25;;;;;;;14.12;20.94;98701.06;5081125;28;20032;-78
2022/03/06 07:23:42;;;;;;;10.18;5.13;;;;;;;16.87;18.65;98702.59;5080969;28;20032;-78
2022/03/06 07:26:08;;;;;;;12.57;5.82;;;;;;;17.76;17.86;98694.44;5079369;28;20055;-77
2022/03/06 07:28:34;;;;;;;11.57;6.05;;;;;;;17.52;17.52;98694.13;5085300;28;20035;-77
2022/03/06 07:31:01;;;;;;;10.00;5.35;;;;;;;18.69;16.66;98697.16;5083671;28;20031;-77
2022/03/06 07:33:27;;;;;;;10.90;5.95;;;;;;;18.36;16.65;98691.59;5083874;28;20120;-77
2022/03/06 07:35:54;;;;;;;10.65;5.53;;;;;;;18.19;16.97;98692.19;5083573;28;20154;-77
2022/03/06 07:38:20;;;;;;;10.32;5.75;;;;;;;16.68;17.76;98691.56;5084460;28;20030;-77
2022/03/06 07:40:46;;;;;;;7.80;4.75;;;;;;;16.88;17.95;98689.50;5084081;28;20036;-77
2022/03/06 07:43:12;;;;;;;7.03;4.28;;;;;;;18.18;17.13;98690.63;5082096;28;20080;-77
2022/03/06 07:45:38;;;;;;;6.40;3.58;;;;;;;19.36;15.74;98680.22;5082911;28;20040;-77
2022/03/06 07:48:04;;;;;;;8.57;4.70;;;;;;;19.35;15.76;98679.38;5063127;28;20036;-77
2022/03/06 07:50:31;;;;;;;6.88;3.50;;;;;;;20.20;15.08;98680.63;5083063;28;20035;-77
2022/03/06 07:52:57;;;;;;;6.03;3.08;;;;;;;17.85;16.52;98686.63;5079013;28;20396;-78
2022/03/06 07:55:23;;;;;;;5.95;3.58;;;;;;;18.72;15.98;98685.22;5084278;28;20033;-78
2022/03/06 07:57:49;;;;;;;6.72;3.42;;;;;;;17.21;16.96;98687.69;5081369;28;20468;-77
2022/03/06 08:00:16;;;;;;;6.50;3.50;;;;;;;17.34;17.10;98679.16;5086930;28;20045;-78
2022/03/06 08:02:42;;;;;;;6.78;3.63;;;;;;;17.84;17.18;98689.78;5081990;28;20033;-78
2022/03/06 08:05:09;;;;;;;11.45;5.05;;;;;;;15.09;18.71;98692.97;5083310;28;20131;-78
2022/03/06 08:07:35;;;;;;;8.30;3.83;;;;;;;13.96;20.61;98686.41;5083036;28;20125;-78
2022/03/06 08:10:04;;;;;;;9.10;4.70;;;;;;;14.76;20.53;98682.28;5085205;28;20135;-78
2022/03/06 08:12:30;;;;;;;7.15;3.92;;;;;;;16.95;18.17;98684.09;5079145;28;20032;-78
2022/03/06 08:14:56;;;;;;;7.68;4.30;;;;;;;15.78;18.79;98689.38;5079982;28;20071;-77
2022/03/06 08:17:22;;;;;;;9.48;4.63;;;;;;;15.18;19.18;98693.56;5080092;28;20545;-78
2022/03/06 08:19:49;;;;;;;7.40;4.15;;;;;;;15.39;19.21;98685.75;5081586;28;20024;-77
2022/03/06 08:22:15;;;;;;;7.03;4.55;;;;;;;15.89;18.26;98684.88;5081460;28;20775;-77
2022/03/06 08:24:41;;;;;;;6.97;4.20;;;;;;;15.79;18.76;98679.94;5078919;28;20427;-77
2022/03/06 08:27:08;;;;;;;9.15;4.75;;;;;;;15.36;19.26;98686.47;5079649;28;20063;-77
2022/03/06 08:29:34;;;;;;;7.60;3.78;;;;;;;16.22;18.89;98682.38;5082289;28;20032;-77
2022/03/06 08:32:00;;;;;;;8.35;3.40;;;;;;;16.89;17.49;98674.50;5066845;28;20029;-77
2022/03/06 08:34:26;;;;;;;8.35;3.63;;;;;;;18.13;16.66;98674.28;5084186;28;20127;-77
2022/03/06 08:36:52;;;;;;;5.82;3.25;;;;;;;17.85;16.81;98669.94;5080845;28;20033;-77
2022/03/06 08:39:19;;;;;;;5.55;3.50;;;;;;;19.11;15.54;98666.09;5079166;28;20028;-77
2022/03/06 08:41:45;;;;;;;7.03;3.95;;;;;;;17.78;16.79;98669.09;5082732;28;20563;-77
2022/03/06 08:44:11;;;;;;;5.78;3.60;;;;;;;18.13;16.44;98663.97;5081381;28;20389;-77
2022/03/06 08:46:37;;;;;;;7.95;3.22;;;;;;;18.92;15.55;98660.78;5078012;28;20031;-78
2022/03/06 08:49:03;;;;;;;6.97;3.80;;;;;;;16.81;17.41;98668.03;5084497;28;20105;-77
2022/03/06 08:51:29;;;;;;;6.70;3.35;;;;;;;17.31;17.06;98663.25;5078478;28;20103;-78
2022/03/06 08:53:55;;;;;;;5.97;3.67;;;;;;;17.07;17.72;98668.06;5078419;28;20052;-78
2022/03/06 08:56:22;;;;;;;5.80;3.00;;;;;;;18.53;16.11;98663.19;5082024;28;20036;-78
2022/03/06 08:58:49;;;;;;;6.07;3.05;;;;;;;17.49;16.89;98667.88;5081054;28;20032;-78
2022/03/06 09:01:15;;;;;;;7.78;3.63;;;;;;;15.32;18.92;98674.53;5085027;28;20032;-78
2022/03/06 09:03:41;;;;;;;7.28;3.67;;;;;;;15.23;18.92;98680.28;5085242;28;20047;-79
2022/03/06 09:06:07;;;;;;;5.90;3.50;;;;;;;15.19;19.20;98675.81;5088327;28;20020;-78
2022/03/06 09:08:34;;;;;;;7.90;4.50;;;;;;;14.81;19.63;98675.69;5080588;28;20028;-78
2022/03/06 09:11:00;;;;;;;6.13;3.88;;;;;;;17.28;17.45;98671.16;5087452;28;20065;-78
2022/03/06 09:13:26;;;;;;;7.95;4.32;;;;;;;16.36;17.97;98673.53;5086553;28;21865;-78
2022/03/06 09:15:52;;;;;;;9.48;4.35;;;;;;;16.03;18.16;98679.66;5088677;28;20032;-78
2022/03/06 09:18:18;;;;;;;10.48;4.82;;;;;;;13.23;21.28;98664.59;5083811;28;20040;-78
2022/03/06 09:20:44;;;;;;;7.95;5.07;;;;;;;13.43;21.48;98677.41;5069748;28;20040;-79
2022/03/06 09:23:10;;;;;;;8.30;4.57;;;;;;;14.06;20.81;98672.91;5084836;28;20020;-79
2022/03/06 09:25:36;;;;;;;7.57;4.18;;;;;;;15.08;19.78;98672.78;5088041;28;20079;-79
2022/03/06 09:28:03;;;;;;;5.65;3.72;;;;;;;14.74;19.98;98665.25;5082624;28;20493;-79
2022/03/06 09:30:30;;;;;;;6.55;3.72;;;;;;;16.14;18.39;98666.78;5082589;28;20036;-78
2022/03/06 09:32:57;;;;;;;9.35;3.60;;;;;;;16.51;17.91;98661.56;5084486;28;20697;-78
2022/03/06 09:35:23;;;;;;;7.65;3.88;;;;;;;16.84;17.71;98664.50;5073357;28;20400;-78
2022/03/06 09:37:50;;;;;;;9.55;4.40;;;;;;;14.81;19.42;98670.97;5086805;28;20058;-79
2022/03/06 09:40:16;;;;;;;6.38;3.80;;;;;;;15.07;19.74;98673.97;5069916;28;20476;-79
2022/03/06 09:42:43;;;;;;;7.75;4.35;;;;;;;14.02;21.20;98669.25;5081645;28;20423;-79
2022/03/06 09:45:11;;;;;;;9.60;4.75;;;;;;;13.23;21.38;98664.59;5065274;28;20494;-79
2022/03/06 09:47:39;;;;;;;8.98;4.38;;;;;;;13.79;20.91;98665.44;5087279;28;20400;-79
2022/03/06 09:50:06;;;;;;;8.60;4.35;;;;;;;13.84;20.63;98670.69;5083565;28;20036;-79
2022/03/06 09:52:32;;;;;;;6.55;4.22;;;;;;;14.84;20.57;98663.91;5082897;28;20082;-77
2022/03/06 09:54:59;;;;;;;5.13;3.80;;;;;;;15.71;18.97;98659.59;5087687;28;20086;-77
2022/03/06 09:57:25;;;;;;;6.90;3.25;;;;;;;17.23;17.18;98649.28;5084180;28;20040;-77
2022/03/06 09:59:51;;;;;;;6.90;3.38;;;;;;;19.08;15.41;98653.75;5084738;28;20036;-77
2022/03/06 10:02:18;;;;;;;7.40;3.42;;;;;;;19.40;14.86;98651.19;5069023;28;20388;-78
2022/03/06 10:04:46;;;;;;;4.00;3.00;;;;;;;19.39;15.37;98660.75;5085172;28;20035;-78
2022/03/06 10:07:17;;;;;;;5.53;3.53;;;;;;;14.87;18.70;98658.47;5084890;28;20060;-78
2022/03/06 10:09:47;;;;;;;5.65;3.60;;;;;;;14.92;19.33;98665.66;5085005;28;20032;-78
2022/03/06 10:12:27;;;;;;;7.57;3.58;;;;;;;13.63;20.58;98665.38;5088079;28;20036;-78
2022/03/06 10:14:57;;;;;;;6.63;3.33;;;;;;;14.49;20.64;98659.09;5087500;28;20043;-77
2022/03/06 10:17:25;;;;;;;11.07;5.35;;;;;;;16.60;18.12;98651.03;5085176;28;20115;-77
2022/03/06 10:19:56;;;;;;;7.45;3.78;;;;;;;15.38;19.20;98664.78;5065975;28;20524;-78
2022/03/06 10:22:28;;;;;;;6.10;3.35;;;;;;;14.28;19.76;98657.72;5085791;28;20034;-78
2022/03/06 10:25:00;;;;;;;6.38;3.75;;;;;;;14.50;20.29;98657.13;5087201;28;20032;-78
2022/03/06 10:27:48;;;;;;;9.13;4.22;;;;;;;14.03;20.12;98661.75;5086945;28;20145;-77
2022/03/06 10:30:31;;;;;;;6.05;3.65;;;;;;;13.05;21.28;98655.75;5083226;28;20035;-78
2022/03/06 10:33:10;;;;;;;6.78;3.97;;;;;;;12.83;21.74;98653.44;5088088;28;20020;-78
2022/03/06 10:35:39;;;;;;;6.43;3.63;;;;;;;13.28;21.48;98652.50;5083037;28;20067;-77
2022/03/06 10:38:27;;;;;;;5.50;3.35;;;;;;;15.57;18.90;98648.22;5082580;28;20485;-77
2022/03/06 10:41:02;;;;;;;6.35;4.00;;;;;;;16.88;17.46;98637.63;5084869;28;20028;-78
2022/03/06 10:43:33;;;;;;;7.70;3.72;;;;;;;17.93;16.50;98634.75;5085609;28;20028;-77
2022/03/06 10:46:15;;;;;;;4.65;3.03;;;;;;;17.76;16.50;98633.34;5081249;28;20029;-77
2022/03/06 10:48:43;;;;;;;7.03;3.58;;;;;;;14.72;19.39;98645.47;5082845;28;20576;-78
2022/03/06 10:51:13;;;;;;;4.93;3.40;;;;;;;14.06;20.37;98647.25;5083502;28;20043;-78
2022/03/06 10:53:39;;;;;;;5.43;2.90;;;;;;;14.65;19.67;98644.50;5081194;28;20115;-78
2022/03/06 10:56:14;;;;;;;7.38;3.42;;;;;;;15.57;18.79;98647.41;5084850;28;20029;-78
2022/03/06 10:58:45;;;;;;;4.20;2.63;;;;;;;17.39;17.32;98632.44;5085225;28;20025;-78
2022/03/06 11:01:12;;;;;;;5.88;3.53;;;;;;;17.43;16.89;98635.28;5083043;28;20032;-78
2022/03/06 11:03:39;;;;;;;4.45;2.75;;;;;;;18.05;16.33;98628.94;5082385;28;20409;-79
2022/03/06 11:06:07;;;;;;;4.97;2.83;;;;;;;17.91;15.98;98637.91;5084344;28;20090;-79
2022/03/06 11:08:35;;;;;;;5.72;3.35;;;;;;;16.37;17.30;98633.56;5084127;28;20032;-78
2022/03/06 11:11:06;;;;;;;6.07;3.35;;;;;;;17.28;17.16;98632.31;5080735;28;20082;-79
2022/03/06 11:13:32;;;;;;;6.63;3.40;;;;;;;14.47;19.80;98625.50;5061385;28;20028;-77
2022/03/06 11:16:00;;;;;;;5.38;2.67;;;;;;;15.55;18.71;98633.94;5084387;28;20046;-78
2022/03/06 11:18:27;;;;;;;6.05;2.15;;;;;;;18.30;16.05;98620.84;5077316;28;20031;-78
2022/03/06 11:20:55;;;;;;;7.32;4.10;;;;;;;17.47;16.52;98616.69;5078101;28;20386;-78
2022/03/06 11:23:34;;;;;;;4.82;3.03;;;;;;;18.46;15.79;98613.09;5078164;28;20041;-79